Time;durP1;ratioP1;P1;durP2;ratioP2;P2;SDS_P1;SDS_P2;PMS_P1;PMS_P2;Temp;Humidity;BMP_temperature;BMP_pressure;BME280_temperature;BME280_humidity;BME280_pressure;Samples;Min_cycle;Max_cycle;Signal;HPM_P1;HPM_P2
2023/11/25 00:00:16;;;;;;;3.87;1.10;;;2.60;99.90;;;;;;5084637;28;20226;-63
2023/11/25 00:02:45;;;;;;;2.27;1.00;;;2.40;99.90;;;;;;5084413;28;20199;-63
2023/11/25 00:05:11;;;;;;;2.37;1.00;;;2.40;99.90;;;;;;5084669;28;20234;-63
2023/11/25 00:07:38;;;;;;;2.50;1.30;;;2.40;99.90;;;;;;5064285;28;20321;-64
2023/11/25 00:10:07;;;;;;;1.30;1.10;;;2.40;99.90;;;;;;5064460;28;20203;-64
2023/11/25 00:12:34;;;;;;;5.33;0.90;;;2.40;99.90;;;;;;5083378;28;20217;-64
2023/11/25 00:15:01;;;;;;;1.63;1.17;;;2.40;99.90;;;;;;5084012;28;20206;-64
2023/11/25 00:17:30;;;;;;;2.83;0.90;;;2.50;99.90;;;;;;5084155;28;20301;-64
2023/11/25 00:19:58;;;;;;;2.10;0.90;;;2.50;99.90;;;;;;5084410;28;20205;-64
2023/11/25 00:22:25;;;;;;;3.23;0.90;;;2.50;99.90;;;;;;5084075;28;20206;-64
2023/11/25 00:24:53;;;;;;;1.43;0.80;;;2.60;99.90;;;;;;5084339;28;20571;-64
2023/11/25 00:27:20;;;;;;;2.53;0.80;;;2.50;99.90;;;;;;5081070;28;20269;-64
2023/11/25 00:29:47;;;;;;;2.23;0.83;;;2.40;99.90;;;;;;5064272;28;20310;-64
2023/11/25 00:32:15;;;;;;;1.83;0.80;;;2.40;99.90;;;;;;5074474;28;20639;-64
2023/11/25 00:34:43;;;;;;;2.73;0.93;;;2.50;99.90;;;;;;5084184;28;20199;-64
2023/11/25 00:37:14;;;;;;;1.57;0.80;;;2.50;99.90;;;;;;5084043;28;20206;-64
2023/11/25 00:39:41;;;;;;;0.90;0.80;;;2.40;99.90;;;;;;5084204;28;20198;-64
2023/11/25 00:42:08;;;;;;;3.53;1.13;;;2.50;99.90;;;;;;5084105;28;20321;-64
2023/11/25 00:44:35;;;;;;;2.97;0.73;;;2.40;99.90;;;;;;5084133;28;20306;-64
2023/11/25 00:47:02;;;;;;;1.67;1.00;;;2.40;99.90;;;;;;5083970;28;21011;-64
2023/11/25 00:49:29;;;;;;;1.93;0.90;;;2.30;99.90;;;;;;5084194;28;20206;-64
2023/11/25 00:51:55;;;;;;;2.23;0.70;;;2.30;99.90;;;;;;5084789;28;20293;-64
2023/11/25 00:54:23;;;;;;;0.90;0.80;;;2.40;99.90;;;;;;5087841;28;20209;-64
2023/11/25 00:56:50;;;;;;;3.20;0.90;;;2.40;99.90;;;;;;5087546;28;20217;-64
2023/11/25 00:59:17;;;;;;;1.67;0.80;;;2.30;99.90;;;;;;5085158;28;20695;-64
2023/11/25 01:01:44;;;;;;;0.60;0.60;;;2.30;99.90;;;;;;5090541;28;20314;-64
2023/11/25 01:04:11;;;;;;;3.00;0.70;;;2.30;99.90;;;;;;5087473;28;20688;-64
2023/11/25 01:06:38;;;;;;;0.73;0.60;;;2.30;99.90;;;;;;5085631;28;20342;-64
2023/11/25 01:09:07;;;;;;;0.63;0.63;;;2.40;99.90;;;;;;5067458;28;20330;-64
2023/11/25 01:11:36;;;;;;;2.03;0.80;;;2.30;99.90;;;;;;5067263;28;20269;-64
2023/11/25 01:14:02;;;;;;;1.37;0.70;;;2.30;99.90;;;;;;5076374;28;20234;-64
2023/11/25 01:16:29;;;;;;;2.07;0.90;;;2.10;99.90;;;;;;5087354;28;20203;-64
2023/11/25 01:18:56;;;;;;;1.87;0.57;;;2.10;99.90;;;;;;5087795;28;20215;-64
2023/11/25 01:21:23;;;;;;;0.60;0.60;;;2.10;99.90;;;;;;5087634;28;20266;-64
2023/11/25 01:23:50;;;;;;;1.47;0.70;;;2.10;99.90;;;;;;5087499;28;20873;-64
2023/11/25 01:26:17;;;;;;;2.50;0.57;;;2.00;99.90;;;;;;5087544;28;20750;-64
2023/11/25 01:28:45;;;;;;;1.03;0.70;;;1.90;99.90;;;;;;5087218;28;20238;-64
2023/11/25 01:31:12;;;;;;;1.93;0.70;;;1.90;99.90;;;;;;5087341;28;20242;-64
2023/11/25 01:33:40;;;;;;;0.73;0.50;;;1.70;99.90;;;;;;5087061;28;20641;-64
2023/11/25 01:36:09;;;;;;;1.17;0.80;;;1.60;99.90;;;;;;5087198;28;20284;-64
2023/11/25 01:38:36;;;;;;;2.87;1.53;;;1.60;99.90;;;;;;5086146;28;20201;-65
2023/11/25 01:41:04;;;;;;;2.17;0.67;;;1.70;99.90;;;;;;5086843;28;20314;-64
2023/11/25 01:43:31;;;;;;;1.27;0.60;;;1.60;99.90;;;;;;5086625;28;20288;-64
2023/11/25 01:46:04;;;;;;;1.73;0.80;;;1.60;99.90;;;;;;5090069;28;20279;-64
2023/11/25 01:48:31;;;;;;;0.67;0.67;;;1.60;99.90;;;;;;5086983;28;20214;-64
2023/11/25 01:51:00;;;;;;;1.07;0.73;;;1.50;99.90;;;;;;5086934;28;20304;-64
2023/11/25 01:53:28;;;;;;;2.27;0.90;;;1.60;99.90;;;;;;5086802;28;20285;-65
2023/11/25 01:55:57;;;;;;;2.00;0.80;;;1.60;99.90;;;;;;5086719;28;20228;-65
2023/11/25 01:58:24;;;;;;;1.67;0.60;;;1.60;99.90;;;;;;5086205;28;20199;-64
2023/11/25 02:00:51;;;;;;;0.60;0.57;;;1.70;99.90;;;;;;5086973;28;20227;-64
2023/11/25 02:03:19;;;;;;;0.63;0.40;;;1.70;99.90;;;;;;5086548;28;20218;-64
2023/11/25 02:05:46;;;;;;;2.27;0.70;;;1.70;99.90;;;;;;5086198;28;20319;-64
2023/11/25 02:08:14;;;;;;;0.97;0.70;;;1.70;99.90;;;;;;5086543;28;20338;-64
2023/11/25 02:10:40;;;;;;;2.00;0.70;;;1.70;99.90;;;;;;5085255;28;20571;-64
2023/11/25 02:13:09;;;;;;;1.40;0.80;;;1.70;99.90;;;;;;5066097;28;20661;-65
2023/11/25 02:15:37;;;;;;;1.00;0.63;;;1.80;99.90;;;;;;5080920;28;20199;-64
2023/11/25 02:18:04;;;;;;;0.77;0.60;;;1.80;99.90;;;;;;5086616;28;20234;-64
2023/11/25 02:20:33;;;;;;;2.50;0.67;;;1.80;99.90;;;;;;5086470;28;20255;-64
2023/11/25 02:23:01;;;;;;;2.17;0.47;;;1.80;99.90;;;;;;5085927;28;20656;-64
2023/11/25 02:25:28;;;;;;;1.97;0.50;;;1.80;99.90;;;;;;5086101;28;20262;-64
2023/11/25 02:27:56;;;;;;;1.23;0.70;;;1.80;99.90;;;;;;5086128;28;20293;-64
2023/11/25 02:30:23;;;;;;;1.67;0.50;;;1.80;99.90;;;;;;5086085;28;20207;-64
2023/11/25 02:32:50;;;;;;;0.73;0.50;;;1.80;99.90;;;;;;5086106;28;20214;-64
2023/11/25 02:35:17;;;;;;;2.87;0.70;;;1.80;99.90;;;;;;5086264;28;20207;-64
2023/11/25 02:37:45;;;;;;;2.67;1.00;;;1.80;99.90;;;;;;5086179;28;20211;-64
2023/11/25 02:40:16;;;;;;;2.23;0.70;;;1.80;99.90;;;;;;5085841;28;20213;-64
2023/11/25 02:42:47;;;;;;;3.23;0.90;;;1.80;99.90;;;;;;5085851;28;20775;-65
2023/11/25 02:45:18;;;;;;;5.77;0.87;;;1.80;99.90;;;;;;5086075;28;20252;-64
2023/11/25 02:47:45;;;;;;;1.57;0.63;;;1.80;99.90;;;;;;5085645;28;20207;-65
2023/11/25 02:50:13;;;;;;;0.70;0.70;;;1.90;99.90;;;;;;5085374;28;20944;-64
2023/11/25 02:52:40;;;;;;;2.10;0.60;;;1.80;99.90;;;;;;5085377;28;20421;-64
2023/11/25 02:55:10;;;;;;;2.67;0.90;;;1.80;99.90;;;;;;5085353;28;20295;-64
2023/11/25 02:57:38;;;;;;;0.97;0.80;;;1.80;99.90;;;;;;5081616;28;20207;-64
2023/11/25 03:00:16;;;;;;;0.77;0.77;;;1.80;99.90;;;;;;5084967;28;20293;-64
2023/11/25 03:02:42;;;;;;;1.37;0.90;;;1.80;99.90;;;;;;5085203;28;20230;-64
2023/11/25 03:05:10;;;;;;;1.00;0.90;;;1.80;99.90;;;;;;5085344;28;20652;-64
2023/11/25 03:07:37;;;;;;;2.37;1.00;;;1.80;99.90;;;;;;5085137;28;20260;-64
2023/11/25 03:10:04;;;;;;;2.70;0.80;;;1.80;99.90;;;;;;5085437;28;20226;-65
2023/11/25 03:12:31;;;;;;;1.57;0.60;;;1.80;99.90;;;;;;5085122;28;20278;-65
2023/11/25 03:15:00;;;;;;;4.30;1.27;;;1.80;99.90;;;;;;5064399;28;20666;-64
2023/11/25 03:17:27;;;;;;;1.27;0.77;;;1.80;99.90;;;;;;5065075;28;20256;-65
2023/11/25 03:19:54;;;;;;;2.87;1.07;;;1.90;99.90;;;;;;5070154;28;20610;-65
2023/11/25 03:22:21;;;;;;;3.23;1.00;;;1.90;99.90;;;;;;5085082;28;20238;-65
2023/11/25 03:24:48;;;;;;;2.43;0.93;;;1.90;99.90;;;;;;5084921;28;20206;-65
2023/11/25 03:27:16;;;;;;;2.40;1.20;;;1.90;99.90;;;;;;5084982;28;20211;-65
2023/11/25 03:29:42;;;;;;;1.60;0.60;;;1.90;99.90;;;;;;5084949;28;20215;-65
2023/11/25 03:32:14;;;;;;;4.77;0.90;;;1.90;99.90;;;;;;5085052;28;20232;-65
2023/11/25 03:34:42;;;;;;;1.73;0.90;;;1.90;99.90;;;;;;5085142;28;20203;-65
2023/11/25 03:37:09;;;;;;;5.67;1.00;;;1.90;99.90;;;;;;5085418;28;20318;-64
2023/11/25 03:39:36;;;;;;;1.33;0.77;;;1.80;99.90;;;;;;5085200;28;20726;-64
2023/11/25 03:42:05;;;;;;;2.80;0.80;;;1.80;99.90;;;;;;5085123;28;20227;-64
2023/11/25 03:44:32;;;;;;;2.47;1.00;;;1.90;99.90;;;;;;5084779;28;20862;-64
2023/11/25 03:46:59;;;;;;;3.03;1.03;;;1.80;99.90;;;;;;5084693;28;20317;-64
2023/11/25 03:49:27;;;;;;;1.10;0.70;;;1.80;99.90;;;;;;5084762;28;20325;-64
2023/11/25 03:51:54;;;;;;;0.97;0.83;;;1.80;99.90;;;;;;5084292;28;20210;-64
2023/11/25 03:54:21;;;;;;;3.60;1.03;;;1.80;99.90;;;;;;5084421;28;20198;-63
2023/11/25 03:56:49;;;;;;;1.00;0.90;;;1.80;99.90;;;;;;5084186;28;20214;-63
2023/11/25 03:59:16;;;;;;;3.53;1.20;;;1.80;99.90;;;;;;5071780;28;20560;-63
2023/11/25 04:01:44;;;;;;;1.63;1.10;;;1.80;99.90;;;;;;5084478;28;20236;-63
2023/11/25 04:04:11;;;;;;;4.23;1.00;;;1.80;99.90;;;;;;5084597;28;20309;-63
2023/11/25 04:06:40;;;;;;;2.40;1.20;;;1.80;99.90;;;;;;5084602;28;20314;-63
2023/11/25 04:09:07;;;;;;;2.00;1.10;;;1.90;99.90;;;;;;5084186;28;20247;-63
2023/11/25 04:11:34;;;;;;;4.53;1.50;;;1.90;99.90;;;;;;5084018;28;20714;-64
2023/11/25 04:14:01;;;;;;;2.93;1.23;;;1.80;99.90;;;;;;5084401;28;20215;-63
2023/11/25 04:16:28;;;;;;;2.30;1.07;;;1.90;99.90;;;;;;5084093;28;20301;-63
2023/11/25 04:18:55;;;;;;;3.33;1.43;;;1.90;99.90;;;;;;5084538;28;20213;-63
2023/11/25 04:21:22;;;;;;;2.80;1.53;;;1.80;99.90;;;;;;5084258;28;20245;-63
2023/11/25 04:23:52;;;;;;;4.13;1.00;;;1.90;99.90;;;;;;5084539;28;20226;-63
2023/11/25 04:26:20;;;;;;;3.60;1.47;;;1.80;99.90;;;;;;5084743;28;20211;-63
2023/11/25 04:28:47;;;;;;;3.43;1.27;;;1.80;99.90;;;;;;5088419;28;20206;-63
2023/11/25 04:31:14;;;;;;;4.63;1.40;;;1.80;99.90;;;;;;5088103;28;20669;-63
2023/11/25 04:33:41;;;;;;;4.57;1.20;;;1.80;99.90;;;;;;5088252;28;20388;-63
2023/11/25 04:36:10;;;;;;;3.83;1.27;;;1.80;99.90;;;;;;5088452;28;20317;-63
2023/11/25 04:38:37;;;;;;;3.03;1.47;;;1.80;99.90;;;;;;5088014;28;20209;-63
2023/11/25 04:41:06;;;;;;;3.90;1.07;;;1.80;99.90;;;;;;5088619;28;20246;-63
2023/11/25 04:43:33;;;;;;;3.03;1.00;;;1.80;99.90;;;;;;5087658;28;20329;-63
2023/11/25 04:46:02;;;;;;;3.97;1.30;;;1.70;99.90;;;;;;5087885;28;20207;-63
2023/11/25 04:48:29;;;;;;;4.40;1.30;;;1.70;99.90;;;;;;5087927;28;20213;-64
2023/11/25 04:50:56;;;;;;;1.47;1.00;;;1.70;99.90;;;;;;5087836;28;20213;-64
2023/11/25 04:53:23;;;;;;;3.73;1.30;;;1.70;99.90;;;;;;5088073;28;20331;-63
2023/11/25 04:55:50;;;;;;;1.40;1.17;;;1.70;99.90;;;;;;5087953;28;20212;-64
2023/11/25 04:58:19;;;;;;;2.60;1.10;;;1.80;99.90;;;;;;5087934;28;20235;-63
2023/11/25 05:00:46;;;;;;;1.30;1.10;;;1.70;99.90;;;;;;5088057;28;20210;-64
2023/11/25 05:03:14;;;;;;;1.90;1.20;;;1.70;99.90;;;;;;5087674;28;20696;-64
2023/11/25 05:05:41;;;;;;;4.53;1.13;;;1.70;99.90;;;;;;5087742;28;20234;-64
2023/11/25 05:08:08;;;;;;;7.50;1.10;;;1.70;99.90;;;;;;5087295;28;20242;-64
2023/11/25 05:10:36;;;;;;;4.87;1.20;;;1.70;99.90;;;;;;5087704;28;20322;-64
2023/11/25 05:13:04;;;;;;;2.53;1.37;;;1.70;99.90;;;;;;5087641;28;20214;-64
2023/11/25 05:15:33;;;;;;;3.00;1.20;;;1.70;99.90;;;;;;5087602;28;20208;-64
2023/11/25 05:18:00;;;;;;;2.03;1.30;;;1.70;99.90;;;;;;5087659;28;20209;-64
2023/11/25 05:20:27;;;;;;;1.77;1.10;;;1.70;99.90;;;;;;5087503;28;20319;-64
2023/11/25 05:22:54;;;;;;;4.40;1.10;;;1.70;99.90;;;;;;5087640;28;20718;-64
2023/11/25 05:25:22;;;;;;;4.00;1.03;;;1.60;99.90;;;;;;5087853;28;20198;-65
2023/11/25 05:27:50;;;;;;;3.97;1.33;;;1.60;99.90;;;;;;5087602;28;20510;-64
2023/11/25 05:30:17;;;;;;;2.17;1.47;;;1.60;99.90;;;;;;5087270;28;20294;-64
2023/11/25 05:32:45;;;;;;;5.03;1.93;;;1.60;99.90;;;;;;5087246;28;20234;-64
2023/11/25 05:35:13;;;;;;;2.03;1.50;;;1.60;99.90;;;;;;5087519;28;20272;-64
2023/11/25 05:37:42;;;;;;;3.00;1.50;;;1.60;99.90;;;;;;5086808;28;20211;-64
2023/11/25 05:40:11;;;;;;;3.10;1.17;;;1.50;99.90;;;;;;5086974;28;20270;-65
2023/11/25 05:42:41;;;;;;;2.73;1.10;;;1.60;99.90;;;;;;5086614;28;20315;-64
2023/11/25 05:45:10;;;;;;;2.27;1.10;;;1.50;99.90;;;;;;5086555;28;20211;-64
2023/11/25 05:47:37;;;;;;;3.27;1.30;;;1.50;99.90;;;;;;5086324;28;20571;-64
2023/11/25 05:50:06;;;;;;;3.87;1.33;;;1.50;99.90;;;;;;5086620;28;20274;-64
2023/11/25 05:52:33;;;;;;;1.47;0.90;;;1.40;99.90;;;;;;5086652;28;20294;-64
2023/11/25 05:55:02;;;;;;;2.80;1.20;;;1.50;99.90;;;;;;5087379;28;20301;-64
2023/11/25 05:57:29;;;;;;;1.97;0.97;;;1.50;99.90;;;;;;5095242;28;20206;-64
2023/11/25 05:59:56;;;;;;;3.33;1.10;;;1.40;99.90;;;;;;5100507;28;20641;-64
2023/11/25 06:02:23;;;;;;;4.20;1.63;;;1.40;99.90;;;;;;5086429;28;20230;-64
2023/11/25 06:04:50;;;;;;;3.67;1.47;;;1.40;99.90;;;;;;5086439;28;20647;-64
2023/11/25 06:07:18;;;;;;;7.67;1.60;;;1.40;99.90;;;;;;5086085;28;20219;-64
2023/11/25 06:09:45;;;;;;;3.20;1.60;;;1.40;99.90;;;;;;5086274;28;20293;-64
2023/11/25 06:12:13;;;;;;;2.77;1.07;;;1.40;99.90;;;;;;5086568;28;20306;-64
2023/11/25 06:14:40;;;;;;;4.00;1.97;;;1.40;99.90;;;;;;5086236;28;20230;-64
2023/11/25 06:17:07;;;;;;;4.83;1.27;;;1.40;99.90;;;;;;5086600;28;20581;-65
2023/11/25 06:19:35;;;;;;;3.03;1.10;;;1.40;99.90;;;;;;5086346;28;20282;-64
2023/11/25 06:22:04;;;;;;;2.80;1.27;;;1.40;99.90;;;;;;5085875;28;20697;-64
2023/11/25 06:24:32;;;;;;;2.90;1.17;;;1.30;99.90;;;;;;5086130;28;20629;-64
2023/11/25 06:26:59;;;;;;;7.03;1.43;;;1.30;99.90;;;;;;5086252;28;20206;-64
2023/11/25 06:29:26;;;;;;;2.43;1.27;;;1.30;99.90;;;;;;5085737;28;20326;-63
2023/11/25 06:31:54;;;;;;;4.60;1.37;;;1.20;99.90;;;;;;5086149;28;20253;-64
2023/11/25 06:34:21;;;;;;;3.80;1.30;;;1.20;99.90;;;;;;5086175;28;20199;-64
2023/11/25 06:36:48;;;;;;;2.43;1.33;;;1.20;99.90;;;;;;5086238;28;20294;-64
2023/11/25 06:39:19;;;;;;;1.23;1.13;;;1.20;99.90;;;;;;5085832;28;20219;-64
2023/11/25 06:41:48;;;;;;;4.50;1.23;;;1.20;99.90;;;;;;5085587;28;20199;-64
2023/11/25 06:44:16;;;;;;;2.67;0.80;;;1.20;99.90;;;;;;5085412;28;20331;-64
2023/11/25 06:46:44;;;;;;;4.93;1.10;;;1.20;99.90;;;;;;5085457;28;20673;-64
2023/11/25 06:49:12;;;;;;;3.70;1.20;;;1.20;99.90;;;;;;5085432;28;20624;-64
2023/11/25 06:51:40;;;;;;;4.87;1.40;;;1.20;99.90;;;;;;5085738;28;20207;-64
2023/11/25 06:54:08;;;;;;;2.47;1.00;;;1.20;99.90;;;;;;5085381;28;20604;-64
2023/11/25 06:56:35;;;;;;;6.03;1.10;;;1.20;99.90;;;;;;5087723;28;20237;-64
2023/11/25 06:59:03;;;;;;;1.80;1.33;;;1.20;99.90;;;;;;5085737;28;20317;-64
2023/11/25 07:01:31;;;;;;;2.73;1.10;;;1.10;99.90;;;;;;5085399;28;20202;-64
2023/11/25 07:03:58;;;;;;;3.37;1.17;;;1.10;99.90;;;;;;5085309;28;20226;-64
2023/11/25 07:06:25;;;;;;;1.30;1.20;;;1.20;99.90;;;;;;5085013;28;20318;-64
2023/11/25 07:08:52;;;;;;;2.90;0.87;;;1.10;99.90;;;;;;5064862;28;20680;-64
2023/11/25 07:11:19;;;;;;;3.43;1.03;;;1.20;99.90;;;;;;5082920;28;20206;-64
2023/11/25 07:13:46;;;;;;;3.77;1.27;;;1.20;99.90;;;;;;5085287;28;20217;-64
2023/11/25 07:16:16;;;;;;;4.60;1.27;;;1.30;99.90;;;;;;5085627;28;20238;-65
2023/11/25 07:18:44;;;;;;;4.17;1.33;;;1.30;99.90;;;;;;5085226;28;20203;-64
2023/11/25 07:21:12;;;;;;;2.67;1.03;;;1.30;99.90;;;;;;5085218;28;20292;-65
2023/11/25 07:23:39;;;;;;;4.33;1.30;;;1.20;99.90;;;;;;5085344;28;20237;-64
2023/11/25 07:26:10;;;;;;;4.60;1.20;;;1.30;99.90;;;;;;5085679;28;20211;-64
2023/11/25 07:28:36;;;;;;;3.23;1.30;;;1.30;99.90;;;;;;5085321;28;20211;-64
2023/11/25 07:31:03;;;;;;;3.73;1.60;;;1.30;99.90;;;;;;5084881;28;20287;-65
2023/11/25 07:33:32;;;;;;;3.90;1.50;;;1.30;99.90;;;;;;5084811;28;20733;-64
2023/11/25 07:36:00;;;;;;;4.03;1.10;;;1.40;99.90;;;;;;5084598;28;20662;-65
2023/11/25 07:38:28;;;;;;;5.37;1.43;;;1.40;99.90;;;;;;5084396;28;20203;-64
2023/11/25 07:40:55;;;;;;;5.97;1.90;;;1.40;99.90;;;;;;5084616;28;20210;-64
2023/11/25 07:43:24;;;;;;;5.73;1.50;;;1.40;99.90;;;;;;5084856;28;20238;-64
2023/11/25 07:45:51;;;;;;;3.70;1.07;;;1.50;99.90;;;;;;5084975;28;20230;-64
2023/11/25 07:48:18;;;;;;;1.90;0.97;;;1.40;99.90;;;;;;5085141;28;20206;-66
2023/11/25 07:50:46;;;;;;;2.13;1.00;;;1.40;99.90;;;;;;5084732;28;20206;-64
2023/11/25 07:53:13;;;;;;;2.60;1.30;;;1.40;99.90;;;;;;5085014;28;20215;-64
2023/11/25 07:55:43;;;;;;;3.17;1.03;;;1.40;99.90;;;;;;5084235;28;20234;-64
2023/11/25 07:58:11;;;;;;;2.63;1.20;;;1.40;99.90;;;;;;5084561;28;20199;-64
2023/11/25 08:00:37;;;;;;;3.00;1.20;;;1.40;99.90;;;;;;5084591;28;20246;-64
2023/11/25 08:03:04;;;;;;;4.40;1.40;;;1.40;99.90;;;;;;5084613;28;20237;-65
2023/11/25 08:05:31;;;;;;;2.37;1.27;;;1.50;99.90;;;;;;5084230;28;20317;-64
2023/11/25 08:07:59;;;;;;;3.67;1.67;;;1.50;99.90;;;;;;5084482;28;20238;-64
2023/11/25 08:10:31;;;;;;;2.33;1.20;;;1.60;99.90;;;;;;5084443;28;20712;-65
2023/11/25 08:12:58;;;;;;;3.47;1.33;;;1.60;99.90;;;;;;5084165;28;20206;-65
2023/11/25 08:15:25;;;;;;;3.30;1.13;;;1.70;99.90;;;;;;5084349;28;20209;-65
2023/11/25 08:17:52;;;;;;;1.67;1.00;;;1.70;99.90;;;;;;5084397;28;20209;-64
2023/11/25 08:20:20;;;;;;;1.97;0.90;;;1.80;99.90;;;;;;5084526;28;20315;-64
2023/11/25 08:22:48;;;;;;;2.23;1.27;;;2.00;99.90;;;;;;5084364;28;20234;-64
2023/11/25 08:25:16;;;;;;;3.17;1.07;;;2.20;99.90;;;;;;5084318;28;20217;-64
2023/11/25 08:27:43;;;;;;;2.53;0.87;;;2.40;99.90;;;;;;5083857;28;20569;-64
2023/11/25 08:30:11;;;;;;;3.03;1.10;;;2.40;99.90;;;;;;5084540;28;20234;-64
2023/11/25 08:32:39;;;;;;;3.67;1.17;;;2.40;99.90;;;;;;5083852;28;20202;-64
2023/11/25 08:35:08;;;;;;;2.83;1.10;;;2.50;99.90;;;;;;5084225;28;20289;-64
2023/11/25 08:37:36;;;;;;;3.70;1.10;;;2.40;99.90;;;;;;5083836;28;20207;-64
2023/11/25 08:40:04;;;;;;;1.33;0.83;;;2.40;99.90;;;;;;5084031;28;20315;-64
2023/11/25 08:42:33;;;;;;;4.90;1.47;;;2.30;99.90;;;;;;5084227;28;20199;-64
2023/11/25 08:45:01;;;;;;;2.20;1.20;;;2.30;99.90;;;;;;5084030;28;20217;-65
2023/11/25 08:47:28;;;;;;;2.37;1.10;;;2.30;99.90;;;;;;5084150;28;20206;-64
2023/11/25 08:49:56;;;;;;;0.93;0.80;;;2.30;99.90;;;;;;5083964;28;20744;-64
2023/11/25 08:52:24;;;;;;;1.53;1.20;;;2.30;99.90;;;;;;5083912;28;20206;-65
2023/11/25 08:54:52;;;;;;;4.33;1.00;;;2.20;99.90;;;;;;5084252;28;20203;-65
2023/11/25 08:57:20;;;;;;;2.80;1.00;;;2.20;99.90;;;;;;5084205;28;20210;-64
2023/11/25 08:59:49;;;;;;;1.83;1.40;;;2.10;99.90;;;;;;5084357;28;20620;-64
2023/11/25 09:02:21;;;;;;;2.40;1.27;;;2.20;99.90;;;;;;5084090;28;20206;-65
2023/11/25 09:04:49;;;;;;;2.60;1.00;;;2.10;99.90;;;;;;5084220;28;20238;-64
2023/11/25 09:07:17;;;;;;;4.77;1.10;;;2.20;99.90;;;;;;5083950;28;20206;-64
2023/11/25 09:09:45;;;;;;;2.27;1.10;;;2.10;99.90;;;;;;5083904;28;20248;-64
2023/11/25 09:12:14;;;;;;;4.00;1.10;;;2.10;99.90;;;;;;5083869;28;20705;-64
2023/11/25 09:14:42;;;;;;;4.47;1.67;;;2.20;99.90;;;;;;5087472;28;20240;-64
2023/11/25 09:17:15;;;;;;;2.63;1.20;;;2.30;99.90;;;;;;5087411;28;20264;-64
2023/11/25 09:19:42;;;;;;;1.93;0.90;;;2.30;99.90;;;;;;5087666;28;20560;-64
2023/11/25 09:22:11;;;;;;;3.57;1.43;;;2.30;99.90;;;;;;5087415;28;20677;-64
2023/11/25 09:24:39;;;;;;;4.07;1.70;;;2.40;99.90;;;;;;5083439;28;20749;-64
2023/11/25 09:27:06;;;;;;;2.90;1.23;;;2.60;99.90;;;;;;5067166;28;20211;-64
2023/11/25 09:29:34;;;;;;;4.80;1.27;;;2.70;99.90;;;;;;5085528;28;20219;-64
2023/11/25 09:32:01;;;;;;;4.90;1.53;;;2.90;99.90;;;;;;5085461;28;20314;-64
2023/11/25 09:34:29;;;;;;;3.47;1.50;;;3.00;99.90;;;;;;5085616;28;20214;-64
2023/11/25 09:36:56;;;;;;;2.73;1.00;;;3.00;99.90;;;;;;5085464;28;20639;-64
2023/11/25 09:39:24;;;;;;;4.53;1.30;;;2.90;99.90;;;;;;5085608;28;20301;-64
2023/11/25 09:41:51;;;;;;;2.60;0.90;;;2.90;99.90;;;;;;5076232;28;20659;-64
2023/11/25 09:44:20;;;;;;;1.67;1.27;;;2.90;99.90;;;;;;5085597;28;20780;-64
2023/11/25 09:46:49;;;;;;;4.10;1.43;;;2.80;99.90;;;;;;5085479;28;20215;-65
2023/11/25 09:49:16;;;;;;;2.40;1.13;;;2.90;99.90;;;;;;5085226;28;20661;-64
2023/11/25 09:51:47;;;;;;;3.10;1.50;;;2.90;99.90;;;;;;5085164;28;20245;-64
2023/11/25 09:54:20;;;;;;;4.37;1.43;;;2.90;99.90;;;;;;5085686;28;20187;-64
2023/11/25 09:56:50;;;;;;;7.50;1.67;;;2.90;99.90;;;;;;5085371;28;20300;-64
2023/11/25 09:59:19;;;;;;;3.90;1.20;;;2.90;99.90;;;;;;5085707;28;20207;-64
2023/11/25 10:01:46;;;;;;;5.40;1.30;;;2.80;99.90;;;;;;5084831;28;20210;-64
2023/11/25 10:04:14;;;;;;;5.17;1.57;;;2.80;99.90;;;;;;5084993;28;20313;-64
2023/11/25 10:06:41;;;;;;;4.17;1.40;;;2.80;99.90;;;;;;5085145;28;20218;-64
2023/11/25 10:09:11;;;;;;;2.63;1.00;;;2.80;99.90;;;;;;5084388;28;20235;-64
2023/11/25 10:11:42;;;;;;;3.13;1.43;;;2.90;99.90;;;;;;5084848;28;20741;-66
2023/11/25 10:14:13;;;;;;;6.47;1.97;;;2.80;99.90;;;;;;5084779;28;20195;-64
2023/11/25 10:16:43;;;;;;;3.63;1.40;;;2.80;99.90;;;;;;5084674;28;20205;-64
2023/11/25 10:19:19;;;;;;;4.47;1.73;;;2.80;99.90;;;;;;5085081;28;20225;-64
2023/11/25 10:21:46;;;;;;;3.13;1.60;;;2.90;99.90;;;;;;5084639;28;20206;-64
2023/11/25 10:24:15;;;;;;;2.50;1.33;;;2.90;99.90;;;;;;5083665;28;20302;-64
2023/11/25 10:26:43;;;;;;;4.43;1.43;;;2.80;99.90;;;;;;5084620;28;20205;-64
2023/11/25 10:29:11;;;;;;;4.97;1.80;;;2.90;99.90;;;;;;5084308;28;20207;-64
2023/11/25 10:31:41;;;;;;;1.90;1.70;;;2.90;99.90;;;;;;5084484;28;20572;-64
2023/11/25 10:34:11;;;;;;;5.33;1.97;;;2.90;99.90;;;;;;5084545;28;20190;-64
2023/11/25 10:36:39;;;;;;;3.03;1.80;;;3.00;99.90;;;;;;5084011;28;20966;-64
2023/11/25 10:39:08;;;;;;;5.53;1.90;;;3.00;99.90;;;;;;5084023;28;20218;-64
2023/11/25 10:41:38;;;;;;;5.00;1.87;;;3.00;99.90;;;;;;5083911;28;20211;-64
2023/11/25 10:44:07;;;;;;;3.87;2.00;;;3.00;99.90;;;;;;5083830;28;20218;-63
2023/11/25 10:46:38;;;;;;;3.77;1.83;;;3.00;99.90;;;;;;5084368;28;20210;-63
2023/11/25 10:49:07;;;;;;;5.03;1.67;;;3.10;99.90;;;;;;5084311;28;20216;-63
2023/11/25 10:51:34;;;;;;;4.77;2.10;;;3.10;99.90;;;;;;5084075;28;20272;-63
2023/11/25 10:54:03;;;;;;;5.10;1.70;;;3.10;99.90;;;;;;5084356;28;20592;-64
2023/11/25 10:56:31;;;;;;;2.40;1.50;;;3.00;99.90;;;;;;5084774;28;20626;-63
2023/11/25 10:59:01;;;;;;;4.00;1.70;;;3.00;99.90;;;;;;5089661;28;20213;-64
2023/11/25 11:01:32;;;;;;;4.00;1.47;;;3.10;99.90;;;;;;5088735;28;20235;-63
2023/11/25 11:04:05;;;;;;;3.83;1.77;;;3.10;99.90;;;;;;5093151;28;20279;-63
2023/11/25 11:06:47;;;;;;;2.63;1.60;;;3.10;99.90;;;;;;5085438;28;21017;-63
2023/11/25 11:09:19;;;;;;;3.73;1.53;;;3.10;99.90;;;;;;5084135;28;20253;-63
2023/11/25 11:11:51;;;;;;;4.93;1.70;;;3.10;99.90;;;;;;5084417;28;20561;-63
2023/11/25 11:14:22;;;;;;;2.93;1.77;;;3.10;99.90;;;;;;5085081;28;20199;-63
2023/11/25 11:17:03;;;;;;;1.80;1.23;;;3.00;99.90;;;;;;5084873;28;20741;-63
2023/11/25 11:19:36;;;;;;;2.47;1.47;;;2.90;99.90;;;;;;5085097;28;20195;-63
2023/11/25 11:22:06;;;;;;;2.50;1.30;;;2.70;99.90;;;;;;5085406;28;20206;-63
2023/11/25 11:24:44;;;;;;;1.33;1.23;;;2.70;99.90;;;;;;5085389;28;20210;-63
2023/11/25 11:27:21;;;;;;;1.87;1.37;;;2.50;99.90;;;;;;5087488;28;20283;-63
2023/11/25 11:29:57;;;;;;;1.80;1.57;;;2.50;99.90;;;;;;5105654;28;20716;-63
2023/11/25 11:32:29;;;;;;;1.77;1.50;;;2.50;99.90;;;;;;5105706;28;20280;-63
2023/11/25 11:34:56;;;;;;;2.70;1.57;;;2.50;99.90;;;;;;5090243;28;20244;-63
2023/11/25 11:37:23;;;;;;;1.90;1.80;;;2.60;99.90;;;;;;5085394;28;20321;-63
2023/11/25 11:40:00;;;;;;;2.03;1.50;;;2.50;99.90;;;;;;5084465;28;20643;-63
2023/11/25 11:42:32;;;;;;;1.67;1.50;;;2.50;99.90;;;;;;5085390;28;20268;-63
2023/11/25 11:45:21;;;;;;;1.30;1.13;;;2.50;99.90;;;;;;5084584;28;20222;-63
2023/11/25 11:47:52;;;;;;;1.27;1.27;;;2.50;99.90;;;;;;5084734;28;20293;-62
2023/11/25 11:50:21;;;;;;;1.83;1.30;;;2.50;99.90;;;;;;5084880;28;20191;-63
2023/11/25 11:52:49;;;;;;;1.80;1.70;;;2.50;99.90;;;;;;5084662;28;20234;-63
2023/11/25 11:55:38;;;;;;;1.53;1.43;;;2.50;99.90;;;;;;5084855;28;20211;-63
2023/11/25 11:58:09;;;;;;;1.57;1.47;;;2.60;99.90;;;;;;5084811;28;20249;-63
2023/11/25 12:00:40;;;;;;;2.57;2.07;;;2.50;99.90;;;;;;5084131;28;20191;-63
2023/11/25 12:03:07;;;;;;;1.77;1.67;;;2.40;99.90;;;;;;5084551;28;20306;-63
2023/11/25 12:05:34;;;;;;;2.60;2.17;;;2.30;99.90;;;;;;5084150;28;20238;-63
2023/11/25 12:08:02;;;;;;;1.90;1.80;;;2.30;99.90;;;;;;5084634;28;20234;-63
2023/11/25 12:10:29;;;;;;;2.60;2.40;;;2.40;99.90;;;;;;5084638;28;20245;-63
2023/11/25 12:12:56;;;;;;;2.30;2.20;;;2.30;99.90;;;;;;5084714;28;20285;-62
2023/11/25 12:15:22;;;;;;;6.93;6.27;;;2.40;99.90;;;;;;5084081;28;20202;-63
2023/11/25 12:17:52;;;;;;;4.23;2.00;;;2.30;99.90;;;;;;5084308;28;20210;-63
2023/11/25 12:20:19;;;;;;;4.83;3.10;;;2.30;99.90;;;;;;5084220;28;20210;-63
2023/11/25 12:22:47;;;;;;;2.37;2.20;;;2.30;99.90;;;;;;5083350;28;21001;-63
2023/11/25 12:25:16;;;;;;;2.13;1.70;;;2.30;99.90;;;;;;5081506;28;20230;-63
2023/11/25 12:27:49;;;;;;;1.80;1.70;;;2.20;99.90;;;;;;5077665;28;20285;-63
2023/11/25 12:30:16;;;;;;;2.03;1.83;;;2.20;99.90;;;;;;5064037;28;20957;-63
2023/11/25 12:32:43;;;;;;;1.90;1.80;;;2.20;99.90;;;;;;5063675;28;20770;-63
2023/11/25 12:35:13;;;;;;;1.80;1.70;;;2.20;99.90;;;;;;5064369;28;20647;-63
2023/11/25 12:37:43;;;;;;;1.80;1.70;;;2.20;99.90;;;;;;5084123;28;20187;-62
2023/11/25 12:40:21;;;;;;;2.60;2.40;;;2.30;99.90;;;;;;5084227;28;20213;-63
2023/11/25 12:42:49;;;;;;;2.13;1.93;;;2.40;99.90;;;;;;5083286;28;20206;-63
2023/11/25 12:45:32;;;;;;;2.00;1.90;;;2.40;99.90;;;;;;5097777;28;20230;-63
2023/11/25 12:48:00;;;;;;;1.80;1.70;;;2.50;99.90;;;;;;5086974;28;20291;-62
2023/11/25 12:50:30;;;;;;;1.80;1.70;;;2.40;99.90;;;;;;5091629;28;20241;-63
2023/11/25 12:53:07;;;;;;;1.43;1.30;;;2.40;99.90;;;;;;5093513;28;20871;-62
2023/11/25 12:55:38;;;;;;;2.80;2.60;;;2.40;99.90;;;;;;5090498;28;20679;-63
2023/11/25 12:58:07;;;;;;;1.90;1.80;;;2.50;99.90;;;;;;5090852;28;20561;-62
2023/11/25 13:00:34;;;;;;;2.30;2.10;;;2.40;99.90;;;;;;5097075;28;20959;-62
2023/11/25 13:03:03;;;;;;;2.33;2.20;;;2.50;99.90;;;;;;5095554;28;20285;-63